Track Кшевецкий Андрей

Time Latitude Longitude Accuracy (66% radius in meters) Altitude (meters) Speed (km/hour) Bearing (degrees) Battery (%) GPS flag
10:20:56 60.403593 30.324887 81.47200012207 86 2.039999961853 37.299999237061 78 0 delete
10:20:43 60.403593 30.324887 81.47200012207 86 2.039999961853 37.299999237061 78 0 delete
10:20:33 60.403593 30.324887 81.47200012207 86 2.039999961853 37.299999237061 78 0 delete
10:20:22 60.403593 30.324887 81.47200012207 86 2.039999961853 37.299999237061 78 0 delete
10:20:11 60.403593 30.324887 81.47200012207 86 2.039999961853 37.299999237061 78 0 delete
10:20:00 60.403593 30.324887 81.47200012207 86 2.039999961853 37.299999237061 78 0 delete
10:19:49 60.403593 30.324887 81.47200012207 86 2.039999961853 37.299999237061 78 0 delete
10:19:38 60.403593 30.324887 81.47200012207 86 2.039999961853 37.299999237061 78 0 delete
10:19:27 60.403593 30.324887 81.47200012207 86 2.039999961853 37.299999237061 78 0 delete
10:19:15 60.403593 30.324887 81.47200012207 86 2.039999961853 37.299999237061 78 0 delete
10:19:03 60.403593 30.324887 81.47200012207 86 2.039999961853 37.299999237061 78 0 delete
10:18:52 60.403593 30.324887 81.47200012207 86 2.039999961853 37.299999237061 78 0 delete
10:18:37 60.403593 30.324887 81.47200012207 86 2.039999961853 37.299999237061 78 0 delete
10:18:26 60.403593 30.324887 81.47200012207 86 2.039999961853 37.299999237061 78 0 delete
10:18:16 60.403593 30.324887 81.47200012207 86 2.039999961853 37.299999237061 78 0 delete
10:18:05 60.403593 30.324887 81.47200012207 86 2.039999961853 37.299999237061 78 0 delete
10:17:54 60.403593 30.324887 81.47200012207 86 2.039999961853 37.299999237061 78 0 delete
10:17:43 60.403593 30.324887 81.47200012207 86 2.039999961853 37.299999237061 78 0 delete
10:17:32 60.403593 30.324887 81.47200012207 86 2.039999961853 37.299999237061 78 0 delete
10:17:21 60.403593 30.324887 81.47200012207 86 2.039999961853 37.299999237061 78 0 delete
09:17:10 60.403605 30.324908 87.903999328613 86 0 0 78 1 delete
10:17:00 60.403593 30.324887 81.47200012207 86 2.039999961853 37.299999237061 78 0 delete
09:16:46 60.403605 30.324908 86.832000732422 86 0 0 78 1 delete
09:15:49 60.403593 30.324887 81.47200012207 86 2.039999961853 37.299999237061 78 1 delete
10:16:47 60.403496 30.324897 11.791999816895 87 2.0499999523163 110.09999847412 78 0 delete
09:15:10 60.403507 30.324871 13.936000823975 88 0 0 78 1 delete
09:14:59 60.403524 30.324862 5.3600001335144 86 1.5199999809265 12 78 1 delete
09:14:49 60.403483 30.324990 3.2160000801086 89 0.15999999642372 300.89999389648 78 1 delete
09:14:39 60.403486 30.324957 3.2160000801086 88 0 0 78 1 delete
09:14:28 60.403488 30.324960 3.2160000801086 88 0 0 78 1 delete
09:14:18 60.403488 30.324973 3.2160000801086 89 0 0 78 1 delete
09:14:08 60.403484 30.324982 3.2160000801086 89 0 0 78 1 delete
09:13:57 60.403484 30.324992 4.2880001068115 89 0 0 78 1 delete
09:13:47 60.403481 30.325034 3.2160000801086 89 0 0 78 1 delete
09:13:37 60.403490 30.325022 3.2160000801086 88 0.17000000178814 144.30000305176 78 1 delete
09:13:27 60.403492 30.325024 4.2880001068115 88 0 0 78 1 delete
09:13:16 60.403503 30.325005 5.3600001335144 87 0 0 78 1 delete
09:13:06 60.403486 30.324986 7.5040001869202 87 0 0 78 1 delete
09:13:01 60.403496 30.324897 11.791999816895 87 2.0499999523163 110.09999847412 78 1 delete
09:12:56 60.403545 30.324859 11.791999816895 88 2.0499999523163 266.60000610352 78 1 delete
09:12:51 60.403580 30.324959 11.791999816895 88 2.0599999427795 264.5 78 1 delete
09:12:45 60.403542 30.325081 10.720000267029 88 2.0599999427795 270.39999389648 78 1 delete
09:12:44 60.403536 30.325120 10.720000267029 88 2.0599999427795 265.70001220703 78 1 delete
09:12:36 60.403540 30.325303 10.720000267029 94 2.0699999332428 263 78 1 delete
09:12:35 60.403541 30.325324 10.720000267029 95 2.0699999332428 257.89999389648 78 1 delete
09:12:29 60.403552 30.325487 10.720000267029 92 2.0699999332428 254 78 1 delete
09:12:25 60.403575 30.325648 10.720000267029 93 2.0699999332428 254.69999694824 78 1 delete
09:12:23 60.403584 30.325694 10.720000267029 91 2.0699999332428 266.70001220703 78 1 delete
09:12:16 60.403531 30.325851 10.720000267029 90 2.0799999237061 280.89999389648 78 1 delete
09:12:14 60.403525 30.325894 10.720000267029 91 2.0799999237061 289.5 78 1 delete